Date,TemperatureHighF,TemperatureAvgF,TemperatureLowF,DewpointHighF,DewpointAvgF,DewpointLowF,HumidityHigh,HumidityAvg,HumidityLow,PressureMaxIn,PressureMinIn,WindSpeedMaxMPH,WindSpeedAvgMPH,GustSpeedMaxMPH,PrecipitationSumIn
2013-2-1,79.0,72.9,65.3,63.2,60.1,54.8,83,65,46,30.04,29.92,6,3,0,0.00
2013-2-2,81.3,71.0,66.4,63.2,61.7,59.5,87,73,53,30.09,30.00,6,1,0,0.00
2013-2-3,72.5,68.4,62.4,61.8,59.4,57.5,98,74,66,30.11,30.02,6,2,0,0.00
2013-2-4,75.2,71.6,68.4,66.4,62.0,59.2,81,72,63,30.07,29.95,5,2,0,0.02
2013-2-5,80.4,70.8,63.3,65.1,62.5,59.4,98,77,53,30.03,29.90,6,2,0,0.24
2013-2-6,79.9,71.4,64.9,68.7,66.1,64.5,99,84,63,30.02,29.91,4,1,0,0.09
2013-2-7,79.2,71.3,65.5,72.8,68.6,65.2,99,92,74,30.04,29.93,4,1,0,0.19
2013-2-8,82.6,71.2,64.0,67.4,65.0,63.6,99,83,56,30.05,29.93,4,1,0,0.00
2013-2-9,80.2,73.1,63.7,67.5,63.4,61.4,99,73,55,30.08,29.94,5,2,0,0.00
2013-2-10,79.3,71.1,67.5,67.0,63.4,60.4,88,77,63,30.12,29.96,5,2,0,0.00
2013-2-11,70.5,68.1,66.9,68.4,66.4,64.7,97,95,92,30.13,30.08,3,1,0,0.08
2013-2-14,77.0,68.9,66.4,63.3,56.1,-99.9,89,70,58,29.98,29.91,5,-33,0,0.00
2013-2-15,84.0,72.6,66.6,67.4,63.7,61.1,89,75,54,30.03,29.90,4,2,0,0.02
2013-2-16,79.9,72.3,66.7,64.9,61.1,57.7,93,69,53,30.05,29.91,6,2,0,0.03
2013-2-17,70.9,70.2,69.4,62.4,60.9,58.7,78,72,67,30.07,30.02,4,2,0,0.02
2013-2-18,78.6,72.6,68.0,64.7,59.9,57.5,88,65,53,30.07,29.92,9,4,0,0.02
2013-2-19,77.4,68.9,63.0,65.7,62.7,58.4,97,81,59,30.08,29.95,5,1,0,0.29
2013-2-20,79.5,70.9,64.2,69.5,63.4,59.3,99,78,58,30.07,29.98,6,2,0,0.23
2013-2-21,74.5,68.1,65.3,68.6,66.2,61.2,99,94,77,30.07,29.97,8,2,0,1.46
2013-2-22,74.3,69.1,66.0,70.0,66.8,64.0,99,92,80,30.06,29.93,6,2,0,1.29
2013-2-23,80.6,71.4,65.5,69.2,65.5,63.7,99,83,60,30.04,29.88,5,2,0,0.64
2013-2-24,73.2,69.5,64.6,67.0,63.8,61.1,97,82,75,30.00,29.88,4,1,0,0.02
2013-2-25,77.4,71.6,66.9,65.3,63.3,61.5,89,76,63,30.01,29.89,9,2,0,0.00
2013-2-26,79.0,70.6,65.1,66.4,63.7,61.6,96,80,58,30.04,29.93,5,1,0,0.12
2013-2-27,81.1,73.1,66.0,64.4,60.9,57.8,82,67,51,30.08,29.93,6,2,0,0.00
2013-2-28,81.5,73.5,67.3,63.0,60.7,55.5,85,65,47,30.08,29.94,5,2,0,0.00